Chalmette, LA (70044)

7:31 PM CST on March 01, 2015 (GMT -0600)
HOV/BCO/BCEL | Change Station
CLOSE
Current Station
Personal Weather Station
Location: Belle Chasse, LA
Elevation: 36 ft
Nearby Weather Stations
Active Advisory: Dense Fog Advisory

Elev 36 ft 29.89 °N, 89.98 °W | Updated 33 seconds ago

Fog
Fog
55.4 °F
Feels Like 55.4 °F
N
3.0
Wind Variable Wind from ENE
Gusts 3.0 mph

Today
High -- | Low -- °F
--% Chance of Precip.
Yesterday
High -- | Low -- °F
Precip. -- in
6:25 AM 5:58 PM
Waxing Gibbous, 88% visible
Pressure 30.25 in
Visibility 0.8 miles
Clouds
Dew Point 55 °F
Humidity 98%
Rainfall 0.00 in
Snow Depth Not available.
UV Not available.
Pollen 9.40 out of 12
Air Quality Not available.
Flu Activity Not available.
METAR KNEW 020053Z 10011KT 3/4SM BR VV002 14/13 A3027 RMK AO2 SLP242 T01440128

More Conditions Fewer Conditions

Pressure 30.25 in
Visibility 0.8 miles
Clouds
Dew Point 55 °F
Humidity 98%
Rainfall 0.00 in
Snow Depth Not available.
UV Not available.
Pollen 9.40 out of 12
Air Quality Not available.
Flu Activity Not available.
METAR KNEW 020053Z 10011KT 3/4SM BR VV002 14/13 A3027 RMK AO2 SLP242 T01440128

More Conditions Fewer Conditions

10-Day Weather Forecast

Almanac

Astronomy

Mar. 01, 2015 Rise Set
Actual Time
Civil Twilight
Nautical Twilight
Astronomical Twilight
Moon
Length of Visible Light
Length of Day
Tomorrow will be .
, % of the Moon is Illuminated

Today's Extremes

State Highs State Lows

Community

WunderPhotos

Upload Photos

1,801,680 photos uploaded!

WunderBlogs® & News

Nearby

Air Quality

  Air Quality AQ Index Pollutant
Not available.

Snow Depth

Station Depth Elevation

Earthquake Activity

City Distance Mag. Time & Date
Minimum magnitude displayed is 2.5.

Coastal Water Temperatures

Place Temperature

Nearby Weather Stations

Dense Fog Advisory
Statement as of 3:00 PM CST on March 01, 2015

... Dense fog advisory in effect from 9 PM this evening to 9 am
CST Monday...

The National Weather Service in New Orleans has issued a dense
fog advisory... which is in effect from 9 PM this evening to 9 am
CST Monday.

* Visibility... one quarter mile or less.

* Duration... areas of fog tonight through mid morning.

* Impacts... reduced visibilities on area roadways including both
interstates 10 and 12.

Precautionary/preparedness actions...

A dense fog advisory means visibilities will frequently be
reduced to less than one quarter mile. If driving... slow down...
use your headlights... and leave plenty of distance ahead of you.